createdAt,value
2018-09-11T00:00:14.786Z,3.30
2018-09-11T00:02:50.356Z,3.10
2018-09-11T00:05:25.696Z,2.40
2018-09-11T00:08:01.242Z,2.55
2018-09-11T00:10:36.589Z,2.80
2018-09-11T00:13:11.908Z,3.45
2018-09-11T00:15:47.445Z,3.17
2018-09-11T00:18:22.846Z,2.77
2018-09-11T00:20:58.429Z,3.47
2018-09-11T00:23:34.036Z,2.70
2018-09-11T00:26:09.443Z,2.30
2018-09-11T00:28:44.942Z,3.65
2018-09-11T00:31:20.519Z,2.80
2018-09-11T00:33:56.065Z,2.70
2018-09-11T00:36:31.466Z,2.12
2018-09-11T00:39:08.047Z,4.62
2018-09-11T00:41:43.319Z,2.83
2018-09-11T00:44:18.610Z,2.40
2018-09-11T00:46:53.969Z,2.40
2018-09-11T00:49:29.337Z,2.75
2018-09-11T00:52:04.956Z,2.90
2018-09-11T00:54:40.616Z,2.20
2018-09-11T00:57:16.326Z,2.40
2018-09-11T00:59:52.109Z,2.92
2018-09-11T01:02:27.612Z,2.83
2018-09-11T01:05:03.257Z,2.90
2018-09-11T01:07:38.839Z,3.22
2018-09-11T01:10:14.593Z,3.70
2018-09-11T01:12:49.958Z,2.83
2018-09-11T01:15:25.446Z,3.42
2018-09-11T01:18:01.080Z,3.50
2018-09-11T01:20:36.698Z,3.30
2018-09-11T01:23:12.247Z,2.90
2018-09-11T01:25:47.615Z,3.35
2018-09-11T01:28:23.265Z,3.20
2018-09-11T01:30:58.570Z,3.60
2018-09-11T01:33:34.066Z,3.45
2018-09-11T01:36:09.689Z,3.40
2018-09-11T01:38:45.170Z,3.45
2018-09-11T01:41:20.772Z,3.20
2018-09-11T01:43:56.386Z,3.90
2018-09-11T01:46:31.839Z,2.77
2018-09-11T01:49:07.359Z,3.15
2018-09-11T01:51:42.695Z,3.30
2018-09-11T01:54:20.866Z,3.52
2018-09-11T01:56:56.305Z,3.27
2018-09-11T01:59:31.896Z,3.42
2018-09-11T02:02:07.600Z,3.52
2018-09-11T02:04:43.197Z,3.52
2018-09-11T02:07:18.569Z,2.90
2018-09-11T02:09:54.179Z,3.83
2018-09-11T02:12:29.860Z,5.47
2018-09-11T02:15:05.609Z,4.53
2018-09-11T02:17:41.489Z,3.33
2018-09-11T02:20:16.999Z,3.60
2018-09-11T02:22:52.540Z,4.40
2018-09-11T02:25:27.912Z,4.10
2018-09-11T02:28:03.267Z,3.98
2018-09-11T02:30:38.679Z,4.05
2018-09-11T02:33:14.097Z,4.08
2018-09-11T02:35:49.699Z,4.20
2018-09-11T02:38:24.847Z,4.25
2018-09-11T02:41:00.279Z,4.65
2018-09-11T02:43:35.829Z,4.30
2018-09-11T02:46:11.332Z,4.90
2018-09-11T02:48:46.776Z,4.58
2018-09-11T02:51:22.166Z,4.33
2018-09-11T02:53:57.530Z,4.20
2018-09-11T02:56:33.056Z,3.70
2018-09-11T02:59:08.467Z,3.90
2018-09-11T03:01:43.788Z,4.35
2018-09-11T03:04:18.999Z,4.67
2018-09-11T03:06:54.306Z,5.22
2018-09-11T03:09:29.866Z,6.05
2018-09-11T03:12:05.400Z,6.37
2018-09-11T03:14:40.817Z,6.80
2018-09-11T03:17:16.389Z,7.35
2018-09-11T03:19:51.759Z,6.30
2018-09-11T03:22:27.326Z,6.03
2018-09-11T03:25:02.866Z,6.33
2018-09-11T03:27:38.395Z,6.90
2018-09-11T03:30:13.900Z,6.78
2018-09-11T03:32:49.396Z,6.90
2018-09-11T03:35:24.957Z,6.80
2018-09-11T03:38:00.593Z,6.45
2018-09-11T03:40:35.949Z,7.20
2018-09-11T03:43:11.533Z,7.90
2018-09-11T03:45:48.956Z,7.50
2018-09-11T03:48:24.229Z,9.00
2018-09-11T03:50:59.480Z,7.80
2018-09-11T03:53:34.711Z,9.10
2018-09-11T03:56:09.966Z,8.60
2018-09-11T03:58:45.369Z,6.95
2018-09-11T04:01:20.885Z,8.10
2018-09-11T04:03:56.392Z,9.20
2018-09-11T04:06:32.063Z,8.58
2018-09-11T04:09:11.647Z,8.85
2018-09-11T04:11:47.118Z,8.83
2018-09-11T04:14:22.874Z,8.30
2018-09-11T04:16:58.232Z,8.13
2018-09-11T04:19:33.867Z,10.55
2018-09-11T04:22:09.342Z,9.70
2018-09-11T04:24:44.716Z,9.40
2018-09-11T04:27:20.046Z,9.08
2018-09-11T04:29:55.472Z,9.80
2018-09-11T04:32:30.867Z,10.25
2018-09-11T04:35:06.409Z,9.90
2018-09-11T04:37:41.920Z,8.90
2018-09-11T04:40:17.211Z,9.18
2018-09-11T04:42:52.762Z,9.93
2018-09-11T04:45:28.239Z,11.43
2018-09-11T04:48:03.729Z,11.33
2018-09-11T04:50:39.134Z,11.40
2018-09-11T04:53:14.484Z,10.82
2018-09-11T04:55:49.978Z,11.60
2018-09-11T04:58:25.406Z,11.15
2018-09-11T05:01:01.189Z,11.38
2018-09-11T05:03:36.764Z,11.30
2018-09-11T05:06:12.168Z,11.70
2018-09-11T05:08:47.689Z,12.00
2018-09-11T05:11:23.066Z,13.43
2018-09-11T05:13:58.620Z,13.13
2018-09-11T05:16:34.091Z,12.47
2018-09-11T05:19:09.547Z,14.47
2018-09-11T05:21:44.951Z,12.63
2018-09-11T05:24:20.357Z,13.80
2018-09-11T05:26:55.761Z,12.85
2018-09-11T05:29:31.128Z,13.72
2018-09-11T05:32:06.351Z,12.88
2018-09-11T05:34:41.629Z,13.22
2018-09-11T05:37:16.920Z,13.28
2018-09-11T05:39:52.360Z,12.43
2018-09-11T05:42:28.543Z,12.75
2018-09-11T05:45:04.119Z,12.50
2018-09-11T05:47:39.908Z,13.45
2018-09-11T05:50:15.199Z,12.60
2018-09-11T05:52:50.802Z,14.60
2018-09-11T05:55:26.103Z,14.78
2018-09-11T05:58:01.568Z,13.45
2018-09-11T06:00:37.041Z,11.60
2018-09-11T06:03:12.646Z,12.73
2018-09-11T06:05:48.126Z,13.00
2018-09-11T06:08:23.487Z,13.10
2018-09-11T06:10:59.167Z,12.30
2018-09-11T06:13:34.617Z,13.75
2018-09-11T06:16:10.080Z,12.60
2018-09-11T06:18:45.607Z,13.22
2018-09-11T06:21:21.393Z,13.22
2018-09-11T06:23:57.081Z,13.03
2018-09-11T06:26:32.570Z,13.05
2018-09-11T06:29:08.470Z,12.65
2018-09-11T06:31:43.698Z,12.68
2018-09-11T06:34:18.962Z,12.10
2018-09-11T06:36:54.350Z,13.05
2018-09-11T06:39:30.079Z,13.28
2018-09-11T06:42:05.508Z,12.00
2018-09-11T06:44:41.025Z,12.95
2018-09-11T06:47:16.398Z,12.80
2018-09-11T06:49:51.910Z,12.18
2018-09-11T06:52:27.399Z,12.13
2018-09-11T06:55:02.808Z,12.80
2018-09-11T06:57:38.099Z,12.63
2018-09-11T07:00:13.565Z,12.95
2018-09-11T07:02:49.229Z,11.78
2018-09-11T07:05:26.328Z,13.30
2018-09-11T07:08:02.392Z,12.68
2018-09-11T07:10:38.294Z,14.33
2018-09-11T07:13:14.224Z,13.25
2018-09-11T07:15:49.964Z,12.73
2018-09-11T07:18:25.540Z,11.88
2018-09-11T07:21:01.212Z,12.35
2018-09-11T07:23:36.646Z,12.95
2018-09-11T07:26:12.123Z,12.88
2018-09-11T07:28:47.475Z,12.15
2018-09-11T07:31:22.963Z,13.18
2018-09-11T07:33:58.510Z,10.70
2018-09-11T07:36:33.978Z,11.33
2018-09-11T07:39:09.766Z,11.30
2018-09-11T07:41:45.920Z,12.37
2018-09-11T07:44:21.257Z,13.10
2018-09-11T07:46:56.949Z,11.77
2018-09-11T07:49:32.570Z,11.73
2018-09-11T07:52:08.158Z,11.05
2018-09-11T07:54:43.529Z,11.43
2018-09-11T07:57:18.863Z,10.70
2018-09-11T07:59:54.118Z,11.25
2018-09-11T08:02:29.599Z,11.38
2018-09-11T08:05:05.003Z,10.80
2018-09-11T08:07:40.598Z,10.85
2018-09-11T08:10:16.001Z,9.98
2018-09-11T08:12:51.691Z,10.40
2018-09-11T08:15:27.189Z,10.72
2018-09-11T08:18:02.715Z,10.43
2018-09-11T08:20:38.050Z,10.85
2018-09-11T08:23:13.266Z,11.08
2018-09-11T08:25:48.607Z,12.00
2018-09-11T08:28:23.988Z,10.63
2018-09-11T08:30:59.530Z,11.30
2018-09-11T08:33:34.892Z,10.30
2018-09-11T08:36:10.290Z,12.37
2018-09-11T08:38:45.566Z,11.37
2018-09-11T08:41:20.948Z,10.75
2018-09-11T08:43:56.589Z,12.65
2018-09-11T08:46:32.189Z,11.70
2018-09-11T08:49:07.800Z,12.17
2018-09-11T08:51:43.220Z,11.90
2018-09-11T08:54:18.778Z,12.45
2018-09-11T08:56:54.246Z,12.30
2018-09-11T08:59:29.810Z,11.38
2018-09-11T09:02:05.439Z,14.05
2018-09-11T09:04:41.016Z,13.93
2018-09-11T09:07:16.327Z,11.95
2018-09-11T09:09:51.679Z,13.77
2018-09-11T09:12:26.820Z,13.85
2018-09-11T09:15:02.506Z,13.20
2018-09-11T09:17:38.170Z,15.15
2018-09-11T09:20:13.546Z,13.20
2018-09-11T09:22:49.140Z,13.78
2018-09-11T09:25:24.778Z,15.48
2018-09-11T09:28:00.230Z,13.15
2018-09-11T09:30:35.799Z,11.75
2018-09-11T09:33:11.454Z,11.50
2018-09-11T09:35:47.123Z,13.70
2018-09-11T09:38:22.563Z,13.53
2018-09-11T09:40:58.006Z,12.50
2018-09-11T09:43:33.245Z,11.53
2018-09-11T09:46:08.693Z,12.40
2018-09-11T09:48:44.068Z,11.80
2018-09-11T09:51:19.722Z,11.88
2018-09-11T09:53:55.245Z,11.33
2018-09-11T09:56:30.708Z,10.70
2018-09-11T09:59:05.959Z,12.20
2018-09-11T10:01:46.458Z,11.78
2018-09-11T10:04:21.791Z,12.10
2018-09-11T10:06:57.346Z,13.47
2018-09-11T10:09:32.817Z,12.30
2018-09-11T10:12:08.466Z,13.70
2018-09-11T10:14:43.895Z,12.93
2018-09-11T10:17:19.482Z,14.37
2018-09-11T10:19:54.907Z,14.60
2018-09-11T10:22:30.182Z,14.47
2018-09-11T10:25:05.747Z,14.65
2018-09-11T10:27:41.554Z,14.63
2018-09-11T10:30:17.038Z,15.03
2018-09-11T10:32:52.385Z,16.07
2018-09-11T10:35:27.757Z,14.83
2018-09-11T10:38:03.006Z,15.03
2018-09-11T10:40:38.644Z,14.95
2018-09-11T10:43:13.878Z,15.80
2018-09-11T10:45:49.347Z,16.05
2018-09-11T10:48:24.609Z,15.83
2018-09-11T10:51:00.068Z,16.37
2018-09-11T10:53:35.381Z,14.00
2018-09-11T10:56:11.359Z,15.60
2018-09-11T10:58:46.943Z,15.70
2018-09-11T11:01:22.572Z,15.23
2018-09-11T11:03:58.276Z,14.68
2018-09-11T11:06:33.688Z,15.20
2018-09-11T11:09:10.580Z,15.72
2018-09-11T11:11:47.249Z,16.45
2018-09-11T11:14:23.570Z,15.58
2018-09-11T11:17:00.045Z,15.88
2018-09-11T11:19:35.723Z,17.02
2018-09-11T11:22:11.274Z,17.27
2018-09-11T11:24:46.715Z,17.07
2018-09-11T11:27:22.137Z,16.77
2018-09-11T11:29:57.576Z,17.67
2018-09-11T11:32:33.126Z,16.50
2018-09-11T11:35:08.733Z,17.00
2018-09-11T11:37:44.136Z,18.10
2018-09-11T11:40:19.740Z,18.77
2018-09-11T11:42:55.433Z,17.73
2018-09-11T11:45:31.053Z,19.07
2018-09-11T11:48:06.492Z,17.90
2018-09-11T11:50:41.959Z,19.10
2018-09-11T11:53:17.172Z,17.20
2018-09-11T11:55:52.468Z,16.67
2018-09-11T11:58:28.955Z,17.85
2018-09-11T12:01:05.016Z,16.73
2018-09-11T12:03:40.876Z,17.27
2018-09-11T12:06:16.375Z,15.80
2018-09-11T12:08:51.847Z,16.00
2018-09-11T12:11:27.746Z,16.33
2018-09-11T12:14:03.947Z,16.07
2018-09-11T12:16:39.510Z,15.83
2018-09-11T12:19:15.105Z,16.37
2018-09-11T12:21:51.917Z,15.83
2018-09-11T12:24:27.315Z,16.50
2018-09-11T12:27:04.143Z,16.60
2018-09-11T12:29:40.030Z,14.90
2018-09-11T12:32:15.876Z,15.57
2018-09-11T12:34:51.981Z,17.17
2018-09-11T12:37:27.809Z,18.90
2018-09-11T12:40:03.656Z,17.47
2018-09-11T12:42:39.247Z,18.47
2018-09-11T12:45:14.666Z,16.50
2018-09-11T12:47:50.686Z,18.60
2018-09-11T12:50:26.026Z,19.27
2018-09-11T12:53:01.480Z,17.63
2018-09-11T12:55:37.010Z,19.17
2018-09-11T12:58:12.593Z,21.10
2018-09-11T13:00:48.179Z,19.70
2018-09-11T13:03:23.699Z,18.33
2018-09-11T13:05:59.229Z,20.30
2018-09-11T13:08:34.686Z,21.27
2018-09-11T13:11:10.229Z,18.50
2018-09-11T13:13:45.644Z,20.30
2018-09-11T13:16:20.919Z,20.40
2018-09-11T13:18:56.190Z,21.43
2018-09-11T13:21:31.722Z,18.87
2018-09-11T13:24:07.788Z,19.63
2018-09-11T13:26:43.026Z,19.97
2018-09-11T13:29:18.419Z,20.20
2018-09-11T13:31:54.145Z,19.67
2018-09-11T13:34:29.618Z,21.37
2018-09-11T13:37:05.252Z,19.07
2018-09-11T13:39:40.608Z,21.67
2018-09-11T13:42:15.967Z,21.50
2018-09-11T13:44:51.546Z,21.50
2018-09-11T13:47:27.001Z,21.03
2018-09-11T13:50:02.425Z,21.37
2018-09-11T13:52:37.868Z,21.87
2018-09-11T13:55:13.656Z,22.17
2018-09-11T13:57:49.300Z,20.10
2018-09-11T14:00:24.889Z,20.73
2018-09-11T14:03:00.409Z,21.73
2018-09-11T14:05:36.006Z,20.10
2018-09-11T14:08:11.445Z,19.50
2018-09-11T14:10:46.729Z,17.63
2018-09-11T14:13:21.929Z,18.77
2018-09-11T14:15:57.416Z,18.17
2018-09-11T14:18:32.898Z,17.37
2018-09-11T14:21:08.279Z,18.17
2018-09-11T14:23:43.696Z,16.33
2018-09-11T14:26:19.126Z,15.50
2018-09-11T14:28:54.688Z,19.10
2018-09-11T14:31:30.108Z,15.20
2018-09-11T14:34:05.705Z,15.30
2018-09-11T14:36:40.986Z,15.00
2018-09-11T14:39:16.388Z,13.10
2018-09-11T14:41:52.659Z,12.13
2018-09-11T14:44:28.399Z,11.53
2018-09-11T14:47:04.439Z,12.10
2018-09-11T14:49:39.925Z,12.60
2018-09-11T14:52:15.276Z,12.10
2018-09-11T14:54:50.549Z,11.90
2018-09-11T14:57:26.275Z,11.40
2018-09-11T15:00:01.663Z,11.90
2018-09-11T15:02:37.186Z,11.40
2018-09-11T15:05:12.922Z,12.03
2018-09-11T15:07:48.390Z,10.30
2018-09-11T15:10:23.848Z,9.87
2018-09-11T15:12:59.368Z,9.00
2018-09-11T15:15:34.599Z,8.70
2018-09-11T15:18:09.956Z,8.40
2018-09-11T15:20:45.407Z,8.60
2018-09-11T15:23:20.636Z,7.30
2018-09-11T15:25:56.130Z,7.20
2018-09-11T15:28:31.839Z,6.60
2018-09-11T15:31:07.370Z,5.73
2018-09-11T15:33:43.101Z,6.20
2018-09-11T15:36:18.655Z,5.67
2018-09-11T15:38:54.190Z,5.20
2018-09-11T15:41:29.720Z,5.60
2018-09-11T15:44:05.274Z,4.10
2018-09-11T15:46:40.975Z,4.50
2018-09-11T15:49:16.542Z,4.20
2018-09-11T15:51:52.117Z,4.90
2018-09-11T15:54:27.736Z,4.50
2018-09-11T15:57:03.299Z,4.80
2018-09-11T15:59:38.868Z,4.10
2018-09-11T16:02:14.296Z,4.10
2018-09-11T16:04:49.608Z,4.10
2018-09-11T16:07:25.119Z,4.10
2018-09-11T16:10:00.609Z,4.83
2018-09-11T16:12:36.069Z,4.60
2018-09-11T16:15:11.501Z,4.40
2018-09-11T16:17:46.927Z,4.70
2018-09-11T16:20:22.527Z,4.03
2018-09-11T16:22:57.916Z,3.95
2018-09-11T16:25:33.455Z,4.30
2018-09-11T16:28:08.937Z,4.70
2018-09-11T16:30:44.381Z,3.83
2018-09-11T16:33:19.715Z,4.50
2018-09-11T16:35:55.120Z,5.00
2018-09-11T16:38:30.540Z,5.57
2018-09-11T16:41:05.926Z,5.03
2018-09-11T16:43:41.187Z,5.30
2018-09-11T16:46:16.419Z,4.67
2018-09-11T16:48:51.945Z,5.70
2018-09-11T16:51:27.410Z,4.37
2018-09-11T16:54:02.946Z,3.63
2018-09-11T16:56:38.398Z,2.90
2018-09-11T16:59:13.989Z,2.80
2018-09-11T17:01:49.495Z,2.52
2018-09-11T17:04:24.870Z,2.62
2018-09-11T17:07:00.236Z,2.20
2018-09-11T17:09:35.738Z,2.08
2018-09-11T17:12:11.476Z,2.12
2018-09-11T17:14:46.960Z,3.27
2018-09-11T17:17:22.379Z,2.75
2018-09-11T17:19:57.738Z,2.87
2018-09-11T17:22:33.396Z,2.50
2018-09-11T17:25:08.863Z,2.65
2018-09-11T17:27:44.326Z,2.90
2018-09-11T17:30:19.841Z,2.50
2018-09-11T17:32:55.548Z,2.67
2018-09-11T17:35:30.960Z,3.02
2018-09-11T17:38:06.362Z,3.22
2018-09-11T17:40:42.059Z,2.72
2018-09-11T17:43:17.450Z,3.08
2018-09-11T17:45:52.868Z,2.55
2018-09-11T17:48:28.257Z,2.00
2018-09-11T17:51:03.910Z,2.12
2018-09-11T17:53:39.423Z,2.30
2018-09-11T17:56:14.797Z,2.20
2018-09-11T17:58:50.210Z,2.65
2018-09-11T18:01:25.780Z,2.60
2018-09-11T18:04:01.296Z,2.98
2018-09-11T18:06:36.934Z,1.82
2018-09-11T18:09:12.379Z,2.45
2018-09-11T18:11:47.964Z,2.58
2018-09-11T18:14:23.599Z,2.13
2018-09-11T18:16:59.169Z,2.10
2018-09-11T18:19:34.799Z,2.50
2018-09-11T18:22:10.445Z,3.07
2018-09-11T18:24:46.000Z,2.60
2018-09-11T18:27:21.557Z,2.13
2018-09-11T18:29:57.468Z,2.40
2018-09-11T18:32:32.871Z,1.95
2018-09-11T18:35:08.480Z,2.40
2018-09-11T18:37:44.121Z,1.85
2018-09-11T18:40:19.668Z,2.55
2018-09-11T18:42:55.230Z,2.30
2018-09-11T18:45:30.899Z,2.65
2018-09-11T18:48:06.581Z,2.20
2018-09-11T18:50:41.999Z,2.10
2018-09-11T18:53:17.556Z,2.25
2018-09-11T18:55:52.990Z,2.15
2018-09-11T18:58:28.291Z,2.05
2018-09-11T19:01:03.806Z,1.75
2018-09-11T19:03:39.217Z,2.12
2018-09-11T19:06:14.597Z,2.22
2018-09-11T19:08:50.108Z,2.25
2018-09-11T19:11:25.507Z,2.90
2018-09-11T19:14:01.076Z,2.35
2018-09-11T19:16:36.749Z,2.10
2018-09-11T19:19:12.510Z,1.50
2018-09-11T19:21:48.169Z,1.62
2018-09-11T19:24:23.717Z,2.42
2018-09-11T19:26:59.005Z,2.67
2018-09-11T19:29:34.530Z,1.85
2018-09-11T19:32:09.977Z,2.33
2018-09-11T19:34:45.328Z,2.85
2018-09-11T19:37:20.674Z,1.70
2018-09-11T19:39:56.052Z,2.40
2018-09-11T19:42:31.376Z,2.33
2018-09-11T19:45:07.232Z,2.12
2018-09-11T19:47:42.677Z,2.10
2018-09-11T19:50:18.335Z,2.45
2018-09-11T19:52:53.737Z,2.05
2018-09-11T19:55:29.140Z,1.90
2018-09-11T19:58:04.592Z,1.90
2018-09-11T20:00:39.848Z,1.90
2018-09-11T20:03:15.181Z,1.60
2018-09-11T20:05:50.828Z,2.10
2018-09-11T20:08:26.687Z,1.98
2018-09-11T20:11:02.302Z,1.20
2018-09-11T20:13:38.011Z,2.35
2018-09-11T20:16:13.516Z,2.37
2018-09-11T20:18:49.067Z,1.95
2018-09-11T20:21:24.245Z,1.67
2018-09-11T20:23:59.677Z,1.77
2018-09-11T20:26:36.068Z,2.67
2018-09-11T20:29:11.541Z,1.80
2018-09-11T20:31:47.004Z,2.55
2018-09-11T20:34:22.256Z,2.02
2018-09-11T20:36:57.689Z,1.90
2018-09-11T20:39:33.051Z,1.32
2018-09-11T20:42:08.736Z,1.77
2018-09-11T20:44:44.287Z,2.27
2018-09-11T20:47:19.718Z,1.75
2018-09-11T20:49:55.001Z,2.72
2018-09-11T20:52:30.451Z,1.70
2018-09-11T20:55:06.200Z,1.82
2018-09-11T20:57:41.860Z,1.35
2018-09-11T21:00:17.293Z,2.50
2018-09-11T21:02:52.746Z,2.30
2018-09-11T21:05:28.270Z,1.92
2018-09-11T21:08:03.527Z,3.77
2018-09-11T21:10:38.877Z,2.00
2018-09-11T21:13:14.484Z,2.05
2018-09-11T21:15:50.259Z,1.62
2018-09-11T21:18:25.706Z,1.95
2018-09-11T21:21:01.211Z,1.75
2018-09-11T21:23:36.523Z,2.15
2018-09-11T21:26:12.019Z,1.90
2018-09-11T21:28:47.385Z,1.72
2018-09-11T21:31:23.102Z,1.55
2018-09-11T21:33:58.546Z,1.70
2018-09-11T21:36:34.090Z,3.92
2018-09-11T21:39:11.509Z,1.47
2018-09-11T21:41:46.799Z,1.62
2018-09-11T21:44:22.119Z,2.20
2018-09-11T21:46:57.645Z,1.40
2018-09-11T21:49:33.277Z,2.47
2018-09-11T21:52:08.951Z,1.60
2018-09-11T21:54:44.439Z,1.50
2018-09-11T21:57:19.850Z,1.95
2018-09-11T21:59:55.365Z,1.55
2018-09-11T22:02:31.014Z,1.72
2018-09-11T22:05:06.937Z,1.60
2018-09-11T22:07:42.159Z,2.00
2018-09-11T22:10:17.695Z,1.40
2018-09-11T22:12:53.209Z,1.52
2018-09-11T22:15:28.569Z,1.67
2018-09-11T22:18:03.878Z,1.92
2018-09-11T22:20:39.315Z,1.37
2018-09-11T22:23:14.668Z,1.60
2018-09-11T22:25:49.968Z,1.87
2018-09-11T22:28:25.326Z,1.57
2018-09-11T22:31:00.706Z,1.30
2018-09-11T22:33:36.078Z,2.00
2018-09-11T22:36:11.586Z,1.40
2018-09-11T22:38:47.800Z,1.30
2018-09-11T22:41:23.279Z,1.70
2018-09-11T22:43:58.682Z,2.22
2018-09-11T22:46:34.008Z,1.80
2018-09-11T22:49:09.479Z,2.00
2018-09-11T22:51:45.016Z,1.65
2018-09-11T22:54:20.326Z,1.52
2018-09-11T22:56:55.597Z,1.50
2018-09-11T22:59:31.106Z,2.08
2018-09-11T23:02:06.618Z,1.87
2018-09-11T23:04:42.044Z,1.75
2018-09-11T23:07:17.447Z,2.00
2018-09-11T23:09:52.756Z,1.72
2018-09-11T23:12:28.278Z,1.62
2018-09-11T23:15:03.859Z,2.10
2018-09-11T23:17:39.288Z,1.80
2018-09-11T23:20:14.730Z,2.77
2018-09-11T23:22:50.099Z,1.90
2018-09-11T23:25:25.648Z,2.35
2018-09-11T23:28:01.046Z,2.12
2018-09-11T23:30:36.295Z,1.90
2018-09-11T23:33:11.749Z,2.35
2018-09-11T23:35:47.305Z,1.77
2018-09-11T23:38:22.680Z,1.80
2018-09-11T23:40:58.234Z,2.75
2018-09-11T23:43:33.644Z,2.27
2018-09-11T23:46:09.106Z,2.45
2018-09-11T23:48:44.852Z,2.10
2018-09-11T23:51:20.345Z,2.35
2018-09-11T23:53:55.878Z,2.50
2018-09-11T23:56:31.380Z,2.15
2018-09-11T23:59:07.071Z,2.08
